createdAt,value
2023-02-23T00:01:54.275Z,100363.34
2023-02-23T00:04:21.693Z,100373.50
2023-02-23T00:06:48.429Z,100378.38
2023-02-23T00:09:24.789Z,100353.31
2023-02-23T00:11:56.582Z,100377.69
2023-02-23T00:14:28.955Z,100372.41
2023-02-23T00:16:56.569Z,100356.94
2023-02-23T00:19:24.964Z,100377.00
2023-02-23T00:21:53.094Z,100381.03
2023-02-23T00:24:20.988Z,100371.00
2023-02-23T00:26:51.255Z,100375.19
2023-02-23T00:29:21.496Z,100377.81
2023-02-23T00:31:49.339Z,100376.13
2023-02-23T00:34:21.665Z,100373.50
2023-02-23T00:36:54.519Z,100362.91
2023-02-23T00:39:24.836Z,100381.00
2023-02-23T00:41:52.725Z,100381.97
2023-02-23T00:44:21.832Z,100379.16
2023-02-23T00:46:51.462Z,100384.72
2023-02-23T00:49:19.994Z,100359.38
2023-02-23T00:51:47.352Z,100380.41
2023-02-23T00:54:15.820Z,100360.59
2023-02-23T00:56:43.503Z,100385.69
2023-02-23T00:59:10.703Z,100378.59
2023-02-23T01:01:38.623Z,100356.75
2023-02-23T01:04:07.357Z,100375.69
2023-02-23T01:06:34.807Z,100377.75
2023-02-23T01:09:05.443Z,100377.75
2023-02-23T01:11:32.251Z,100376.81
2023-02-23T01:14:00.282Z,100365.94
2023-02-23T01:16:29.888Z,100375.13
2023-02-23T01:18:58.893Z,100381.50
2023-02-23T01:21:29.545Z,100366.63
2023-02-23T01:23:57.280Z,100374.28
2023-02-23T01:26:30.305Z,100377.03
2023-02-23T01:29:03.267Z,100369.13
2023-02-23T01:31:30.802Z,100372.75
2023-02-23T01:34:00.454Z,100358.63
2023-02-23T01:36:32.891Z,100353.78
2023-02-23T01:39:00.548Z,100363.50
2023-02-23T01:41:33.033Z,100371.63
2023-02-23T01:44:01.423Z,100363.91
2023-02-23T01:46:28.163Z,100370.09
2023-02-23T01:48:56.533Z,100343.88
2023-02-23T01:51:27.879Z,100361.28
2023-02-23T01:54:07.350Z,100363.22
2023-02-23T01:56:43.489Z,100360.59
2023-02-23T01:59:13.179Z,100363.09
2023-02-23T02:01:40.894Z,100366.16
2023-02-23T02:04:09.098Z,100365.72
2023-02-23T02:06:39.309Z,100367.66
2023-02-23T02:09:17.457Z,100344.00
2023-02-23T02:11:46.551Z,100347.50
2023-02-23T02:14:17.729Z,100361.69
2023-02-23T02:16:56.337Z,100360.00
2023-02-23T02:19:37.179Z,100333.28
2023-02-23T02:22:28.459Z,100359.59
2023-02-23T02:25:18.508Z,100361.38
2023-02-23T02:28:10.714Z,100353.59
2023-02-23T02:30:55.438Z,100362.34
2023-02-23T02:33:34.821Z,100330.38
2023-02-23T02:36:07.618Z,100355.78
2023-02-23T02:38:56.053Z,100337.56
2023-02-23T02:41:43.738Z,100344.06
2023-02-23T02:44:28.951Z,100354.34
2023-02-23T02:47:04.912Z,100357.69
2023-02-23T02:49:42.944Z,100363.81
2023-02-23T02:52:18.380Z,100360.22
2023-02-23T02:54:53.960Z,100367.28
2023-02-23T02:57:25.328Z,100368.38
2023-02-23T03:00:10.964Z,100355.56
2023-02-23T03:02:58.862Z,100363.38
2023-02-23T03:05:49.051Z,100360.84
2023-02-23T03:08:57.783Z,100360.97
2023-02-23T03:11:54.046Z,100351.66
2023-02-23T03:14:56.822Z,100369.75
2023-02-23T03:17:58.718Z,100366.13
2023-02-23T03:20:53.473Z,100366.78
2023-02-23T03:23:48.019Z,100381.53
2023-02-23T03:26:47.084Z,100381.53
2023-02-23T03:30:06.100Z,100376.13
2023-02-23T03:33:18.866Z,100382.47
2023-02-23T03:36:04.139Z,100381.66
2023-02-23T03:39:04.125Z,100373.16
2023-02-23T03:41:50.819Z,100381.06
2023-02-23T03:44:44.264Z,100381.91
2023-02-23T03:47:33.857Z,100379.66
2023-02-23T03:50:22.909Z,100384.78
2023-02-23T03:53:13.168Z,100386.47
2023-02-23T03:56:02.466Z,100382.88
2023-02-23T03:58:54.621Z,100383.16
2023-02-23T04:01:42.120Z,100364.03
2023-02-23T04:04:29.219Z,100386.28
2023-02-23T04:07:17.269Z,100385.19
2023-02-23T04:10:03.088Z,100390.34
2023-02-23T04:12:51.522Z,100386.75
2023-02-23T04:15:26.482Z,100391.44
2023-02-23T04:17:53.931Z,100384.75
2023-02-23T04:20:22.192Z,100395.03
2023-02-23T04:22:49.003Z,100374.72
2023-02-23T04:25:18.035Z,100381.22
2023-02-23T04:27:45.091Z,100396.28
2023-02-23T04:30:12.458Z,100378.84
2023-02-23T04:32:39.702Z,100395.41
2023-02-23T04:35:07.407Z,100402.50
2023-02-23T04:37:34.280Z,100379.94
2023-02-23T04:40:01.659Z,100406.91
2023-02-23T04:42:28.851Z,100393.31
2023-02-23T04:44:55.622Z,100378.84
2023-02-23T04:47:22.448Z,100399.41
2023-02-23T04:49:49.324Z,100396.22
2023-02-23T04:52:16.304Z,100401.34
2023-02-23T04:54:43.381Z,100376.50
2023-02-23T04:57:10.307Z,100414.28
2023-02-23T04:59:37.720Z,100404.00
2023-02-23T05:02:04.561Z,100402.75
2023-02-23T05:04:31.353Z,100410.41
2023-02-23T05:06:58.253Z,100398.72
2023-02-23T05:09:25.102Z,100406.91
2023-02-23T05:11:51.889Z,100409.56
2023-02-23T05:14:18.770Z,100407.06
2023-02-23T05:16:45.529Z,100420.00
2023-02-23T05:19:12.360Z,100411.25
2023-02-23T05:21:39.292Z,100425.16
2023-02-23T05:24:06.341Z,100412.78
2023-02-23T05:26:33.410Z,100424.88
2023-02-23T05:29:00.427Z,100423.06
2023-02-23T05:31:28.800Z,100409.00
2023-02-23T05:33:55.618Z,100418.66
2023-02-23T05:36:22.560Z,100429.75
2023-02-23T05:38:49.593Z,100405.97
2023-02-23T05:41:21.785Z,100427.59
2023-02-23T05:43:52.404Z,100440.78
2023-02-23T05:46:25.108Z,100427.31
2023-02-23T05:48:56.838Z,100433.41
2023-02-23T05:51:23.772Z,100407.25
2023-02-23T05:53:50.471Z,100428.88
2023-02-23T05:56:20.571Z,100443.88
2023-02-23T05:58:58.054Z,100448.41
2023-02-23T06:01:26.596Z,100444.16
2023-02-23T06:03:53.526Z,100451.72
2023-02-23T06:06:20.595Z,100450.41
2023-02-23T06:08:47.400Z,100436.84
2023-02-23T06:11:14.171Z,100462.19
2023-02-23T06:13:41.356Z,100466.34
2023-02-23T06:16:08.693Z,100471.06
2023-02-23T06:18:35.508Z,100468.56
2023-02-23T06:21:03.958Z,100467.97
2023-02-23T06:23:32.217Z,100479.38
2023-02-23T06:26:00.127Z,100479.38
2023-02-23T06:28:28.766Z,100477.88
2023-02-23T06:30:56.174Z,100467.41
2023-02-23T06:33:23.679Z,100465.53
2023-02-23T06:35:50.514Z,100483.78
2023-02-23T06:38:17.389Z,100487.38
2023-02-23T06:40:44.388Z,100492.16
2023-02-23T06:43:11.464Z,100487.03
2023-02-23T06:45:38.280Z,100457.00
2023-02-23T06:48:05.363Z,100490.94
2023-02-23T06:50:32.191Z,100493.25
2023-02-23T06:52:59.098Z,100502.56
2023-02-23T06:55:25.844Z,100505.69
2023-02-23T06:57:54.322Z,100497.75
2023-02-23T07:00:21.605Z,100492.72
2023-02-23T07:02:48.732Z,100498.72
2023-02-23T07:05:15.484Z,100496.22
2023-02-23T07:07:42.262Z,100474.78
2023-02-23T07:10:09.720Z,100501.56
2023-02-23T07:12:36.661Z,100494.13
2023-02-23T07:15:03.729Z,100498.34
2023-02-23T07:17:30.504Z,100483.59
2023-02-23T07:19:57.499Z,100502.25
2023-02-23T07:22:27.831Z,100507.03
2023-02-23T07:24:54.540Z,100500.66
2023-02-23T07:27:21.463Z,100502.03
2023-02-23T07:29:48.218Z,100505.63
2023-02-23T07:32:15.072Z,100503.81
2023-02-23T07:34:41.880Z,100510.38
2023-02-23T07:37:08.641Z,100511.09
2023-02-23T07:39:35.576Z,100505.81
2023-02-23T07:42:02.407Z,100507.72
2023-02-23T07:44:29.882Z,100498.16
2023-02-23T07:46:57.665Z,100495.13
2023-02-23T07:49:25.531Z,100511.09
2023-02-23T07:51:52.342Z,100507.22
2023-02-23T07:54:19.095Z,100489.00
2023-02-23T07:56:45.867Z,100506.81
2023-02-23T07:59:12.587Z,100509.16
2023-02-23T08:01:39.354Z,100507.78
2023-02-23T08:04:06.601Z,100499.75
2023-02-23T08:06:33.413Z,100522.19
2023-02-23T08:09:03.419Z,100522.34
2023-02-23T08:11:30.274Z,100519.88
2023-02-23T08:14:00.090Z,100519.06
2023-02-23T08:16:28.676Z,100514.59
2023-02-23T08:18:58.543Z,100518.47
2023-02-23T08:21:26.555Z,100513.78
2023-02-23T08:23:53.507Z,100501.09
2023-02-23T08:26:20.157Z,100521.94
2023-02-23T08:28:47.088Z,100502.09
2023-02-23T08:31:16.341Z,100505.94
2023-02-23T08:33:43.142Z,100522.16
2023-02-23T08:36:10.184Z,100516.56
2023-02-23T08:38:36.886Z,100519.34
2023-02-23T08:41:05.104Z,100513.78
2023-02-23T08:43:32.406Z,100507.41
2023-02-23T08:45:59.291Z,100510.84
2023-02-23T08:48:26.319Z,100516.06
2023-02-23T08:50:56.897Z,100518.56
2023-02-23T08:53:25.587Z,100511.28
2023-02-23T08:55:59.972Z,100509.28
2023-02-23T08:58:28.369Z,100509.47
2023-02-23T09:00:55.272Z,100519.53
2023-02-23T09:03:23.391Z,100500.28
2023-02-23T09:05:50.314Z,100511.84
2023-02-23T09:08:17.154Z,100510.44
2023-02-23T09:10:44.025Z,100515.38
2023-02-23T09:13:12.142Z,100520.31
2023-02-23T09:15:40.351Z,100526.72
2023-02-23T09:18:10.417Z,100521.78
2023-02-23T09:20:37.005Z,100541.13
2023-02-23T09:23:03.704Z,100549.06
2023-02-23T09:25:31.595Z,100534.53
2023-02-23T09:27:59.651Z,100551.56
2023-02-23T09:30:27.539Z,100540.25
2023-02-23T09:32:56.431Z,100542.66
2023-02-23T09:35:24.611Z,100548.50
2023-02-23T09:37:54.957Z,100519.97
2023-02-23T09:40:34.677Z,100543.06
2023-02-23T09:43:11.855Z,100538.34
2023-02-23T09:45:51.527Z,100539.88
2023-02-23T09:48:22.100Z,100528.41
2023-02-23T09:50:55.164Z,100527.56
2023-02-23T09:53:44.680Z,100539.00
2023-02-23T09:56:11.701Z,100546.81
2023-02-23T09:58:38.952Z,100514.66
2023-02-23T10:01:24.755Z,100543.06
2023-02-23T10:04:05.646Z,100537.09
2023-02-23T10:06:32.748Z,100545.41
2023-02-23T10:09:23.315Z,100549.06
2023-02-23T10:12:08.667Z,100551.56
2023-02-23T10:15:06.613Z,100544.16
2023-02-23T10:17:44.335Z,100550.44
2023-02-23T10:20:26.994Z,100543.75
2023-02-23T10:22:58.417Z,100542.34
2023-02-23T10:25:29.049Z,100528.22
2023-02-23T10:27:58.452Z,100554.22
2023-02-23T10:30:29.272Z,100550.59
2023-02-23T10:33:18.787Z,100552.72
2023-02-23T10:35:45.732Z,100545.59
2023-02-23T10:38:18.465Z,100542.66
2023-02-23T10:40:49.690Z,100549.75
2023-02-23T10:43:16.554Z,100541.91
2023-02-23T10:45:49.621Z,100540.59
2023-02-23T10:48:20.757Z,100535.44
2023-02-23T10:50:53.070Z,100508.81
2023-02-23T10:53:28.442Z,100521.91
2023-02-23T10:56:03.029Z,100519.41
2023-02-23T10:58:30.442Z,100520.47
2023-02-23T11:01:00.536Z,100502.03
2023-02-23T11:03:33.718Z,100493.84
2023-02-23T11:06:00.663Z,100510.69
2023-02-23T11:08:37.994Z,100503.63
2023-02-23T11:11:17.195Z,100503.56
2023-02-23T11:13:49.307Z,100499.63
2023-02-23T11:16:20.142Z,100493.06
2023-02-23T11:18:59.509Z,100487.44
2023-02-23T11:21:36.928Z,100494.84
2023-02-23T11:24:12.571Z,100485.91
2023-02-23T11:26:42.359Z,100478.53
2023-02-23T11:29:17.814Z,100463.56
2023-02-23T11:31:52.616Z,100461.00
2023-02-23T11:34:32.703Z,100443.19
2023-02-23T11:37:04.967Z,100465.09
2023-02-23T11:39:31.955Z,100463.56
2023-02-23T11:42:27.253Z,100462.69
2023-02-23T11:45:25.867Z,100464.09
2023-02-23T11:47:55.625Z,100465.09
2023-02-23T11:50:32.692Z,100443.09
2023-02-23T11:53:17.758Z,100459.81
2023-02-23T11:55:54.996Z,100462.59
2023-02-23T11:58:44.555Z,100424.13
2023-02-23T12:01:14.258Z,100451.84
2023-02-23T12:03:49.702Z,100442.59
2023-02-23T12:06:35.756Z,100449.81
2023-02-23T12:09:24.280Z,100453.44
2023-02-23T12:12:03.091Z,100453.59
2023-02-23T12:14:36.391Z,100447.34
2023-02-23T12:17:36.902Z,100447.22
2023-02-23T12:20:16.607Z,100448.19
2023-02-23T12:22:56.546Z,100444.41
2023-02-23T12:25:38.743Z,100438.28
2023-02-23T12:28:33.466Z,100436.69
2023-02-23T12:31:15.975Z,100433.44
2023-02-23T12:33:47.104Z,100429.16
2023-02-23T12:36:26.266Z,100404.75
2023-02-23T12:39:27.878Z,100424.16
2023-02-23T12:42:12.988Z,100428.16
2023-02-23T12:45:03.142Z,100423.53
2023-02-23T12:47:49.214Z,100405.44
2023-02-23T12:50:30.510Z,100416.53
2023-02-23T12:53:12.645Z,100417.66
2023-02-23T12:55:50.943Z,100402.97
2023-02-23T12:58:29.150Z,100410.22
2023-02-23T13:01:17.141Z,100417.19
2023-02-23T13:03:59.442Z,100417.19
2023-02-23T13:06:30.365Z,100389.78
2023-02-23T13:09:24.941Z,100412.25
2023-02-23T13:12:13.488Z,100416.72
2023-02-23T13:15:05.244Z,100414.34
2023-02-23T13:17:40.841Z,100399.03
2023-02-23T13:20:17.785Z,100410.91
2023-02-23T13:22:56.689Z,100403.34
2023-02-23T13:25:36.979Z,100405.66
2023-02-23T13:28:06.908Z,100395.75
2023-02-23T13:30:35.470Z,100396.13
2023-02-23T13:33:08.441Z,100391.38
2023-02-23T13:35:38.436Z,100403.78
2023-02-23T13:38:18.770Z,100400.31
2023-02-23T13:41:10.235Z,100401.75
2023-02-23T13:43:49.394Z,100393.84
2023-02-23T13:46:34.561Z,100411.06
2023-02-23T13:49:16.317Z,100405.34
2023-02-23T13:51:55.967Z,100395.22
2023-02-23T13:54:24.372Z,100379.56
2023-02-23T13:56:56.140Z,100387.19
2023-02-23T13:59:30.083Z,100388.72
2023-02-23T14:01:59.741Z,100368.56
2023-02-23T14:04:29.260Z,100375.34
2023-02-23T14:07:16.607Z,100391.38
2023-02-23T14:09:59.360Z,100383.19
2023-02-23T14:12:35.652Z,100373.78
2023-02-23T14:15:25.352Z,100382.81
2023-02-23T14:18:03.064Z,100379.09
2023-02-23T14:21:05.443Z,100382.16
2023-02-23T14:23:50.151Z,100378.06
2023-02-23T14:26:29.232Z,100379.06
2023-02-23T14:29:25.678Z,100380.19
2023-02-23T14:32:03.784Z,100370.56
2023-02-23T14:34:57.158Z,100362.25
2023-02-23T14:37:36.824Z,100366.03
2023-02-23T14:40:29.548Z,100376.19
2023-02-23T14:43:00.683Z,100374.53
2023-02-23T14:45:38.916Z,100366.03
2023-02-23T14:48:12.906Z,100372.72
2023-02-23T14:50:41.383Z,100376.31
2023-02-23T14:53:21.615Z,100369.00
2023-02-23T14:55:49.835Z,100370.78
2023-02-23T14:58:29.162Z,100370.25
2023-02-23T15:00:55.994Z,100373.06
2023-02-23T15:03:22.822Z,100368.03
2023-02-23T15:06:10.828Z,100372.19
2023-02-23T15:08:44.701Z,100366.91
2023-02-23T15:11:14.429Z,100346.31
2023-02-23T15:13:47.152Z,100363.69
2023-02-23T15:16:24.304Z,100354.13
2023-02-23T15:18:53.326Z,100364.41
2023-02-23T15:21:23.346Z,100369.56
2023-02-23T15:23:58.018Z,100343.97
2023-02-23T15:26:32.273Z,100305.63
2023-02-23T15:29:13.625Z,100359.81
2023-02-23T15:31:51.218Z,100337.97
2023-02-23T15:34:30.591Z,100352.03
2023-02-23T15:36:58.617Z,100354.22
2023-02-23T15:39:38.676Z,100354.78
2023-02-23T15:42:11.060Z,100336.47
2023-02-23T15:44:44.464Z,100352.28
2023-02-23T15:47:28.566Z,100354.94
2023-02-23T15:50:18.105Z,100354.78
2023-02-23T15:52:50.932Z,100350.09
2023-02-23T15:55:24.506Z,100357.22
2023-02-23T15:58:00.467Z,100363.78
2023-02-23T16:00:38.667Z,100352.19
2023-02-23T16:03:07.533Z,100364.75
2023-02-23T16:05:47.050Z,100361.53
2023-02-23T16:08:23.473Z,100361.28
2023-02-23T16:10:55.196Z,100350.81
2023-02-23T16:13:22.594Z,100357.47
2023-02-23T16:15:50.189Z,100354.72
2023-02-23T16:18:26.445Z,100365.56
2023-02-23T16:20:57.544Z,100340.97
2023-02-23T16:23:52.725Z,100363.94
2023-02-23T16:26:28.935Z,100364.03
2023-02-23T16:29:02.315Z,100369.50
2023-02-23T16:31:55.495Z,100353.22
2023-02-23T16:34:47.675Z,100371.72
2023-02-23T16:37:23.160Z,100349.06
2023-02-23T16:39:50.003Z,100372.84
2023-02-23T16:42:24.162Z,100356.13
2023-02-23T16:44:51.066Z,100367.13
2023-02-23T16:47:23.433Z,100373.28
2023-02-23T16:49:50.872Z,100346.59
2023-02-23T16:52:23.739Z,100365.75
2023-02-23T16:54:54.523Z,100360.91
2023-02-23T16:57:27.382Z,100369.00
2023-02-23T16:59:55.008Z,100367.47
2023-02-23T17:02:24.903Z,100356.47
2023-02-23T17:04:51.790Z,100364.25
2023-02-23T17:07:23.184Z,100365.53
2023-02-23T17:09:50.905Z,100374.16
2023-02-23T17:12:21.873Z,100349.69
2023-02-23T17:14:49.778Z,100371.66
2023-02-23T17:17:19.484Z,100370.16
2023-02-23T17:19:46.777Z,100375.28
2023-02-23T17:22:14.355Z,100372.78
2023-02-23T17:24:42.952Z,100361.66
2023-02-23T17:27:09.719Z,100364.59
2023-02-23T17:29:36.506Z,100359.28
2023-02-23T17:32:03.505Z,100370.97
2023-02-23T17:34:31.297Z,100366.78
2023-02-23T17:36:58.110Z,100374.59
2023-02-23T17:39:28.129Z,100349.31
2023-02-23T17:41:56.027Z,100357.09
2023-02-23T17:44:23.051Z,100373.91
2023-02-23T17:46:50.001Z,100365.97
2023-02-23T17:49:16.833Z,100374.72
2023-02-23T17:51:43.616Z,100348.44
2023-02-23T17:54:10.376Z,100348.59
2023-02-23T17:56:37.302Z,100375.88
2023-02-23T17:59:04.089Z,100370.59
2023-02-23T18:01:31.107Z,100367.94
2023-02-23T18:03:59.375Z,100368.06
2023-02-23T18:06:26.306Z,100359.84
2023-02-23T18:08:53.030Z,100338.97
2023-02-23T18:11:19.933Z,100339.84
2023-02-23T18:13:48.291Z,100349.69
2023-02-23T18:16:16.191Z,100349.53
2023-02-23T18:18:46.961Z,100353.03
2023-02-23T18:21:17.453Z,100357.34
2023-02-23T18:23:44.321Z,100351.53
2023-02-23T18:26:17.139Z,100361.41
2023-02-23T18:28:45.777Z,100359.88
2023-02-23T18:31:20.594Z,100364.31
2023-02-23T18:33:49.952Z,100364.59
2023-02-23T18:36:28.386Z,100367.69
2023-02-23T18:38:56.812Z,100360.88
2023-02-23T18:41:24.102Z,100365.34
2023-02-23T18:43:51.086Z,100357.66
2023-02-23T18:46:17.931Z,100353.38
2023-02-23T18:48:44.860Z,100358.66
2023-02-23T18:51:14.295Z,100340.03
2023-02-23T18:53:42.005Z,100352.53
2023-02-23T18:56:22.977Z,100350.03
2023-02-23T18:58:54.797Z,100351.00
2023-02-23T19:01:24.958Z,100350.16
2023-02-23T19:03:53.510Z,100351.00
2023-02-23T19:06:22.497Z,100350.16
2023-02-23T19:08:54.716Z,100351.28
2023-02-23T19:11:24.641Z,100352.13
2023-02-23T19:13:56.964Z,100346.00
2023-02-23T19:16:25.701Z,100344.19
2023-02-23T19:18:52.656Z,100325.81
2023-02-23T19:21:23.575Z,100344.19
2023-02-23T19:23:52.453Z,100341.81
2023-02-23T19:26:20.345Z,100343.63
2023-02-23T19:28:48.147Z,100344.47
2023-02-23T19:31:20.566Z,100340.03
2023-02-23T19:33:49.567Z,100349.75
2023-02-23T19:36:23.005Z,100343.94
2023-02-23T19:38:50.146Z,100337.94
2023-02-23T19:41:20.743Z,100342.84
2023-02-23T19:43:47.740Z,100330.59
2023-02-23T19:46:17.306Z,100347.56
2023-02-23T19:48:48.725Z,100345.72
2023-02-23T19:51:15.618Z,100344.09
2023-02-23T19:53:42.564Z,100345.72
2023-02-23T19:56:12.770Z,100328.09
2023-02-23T19:58:44.716Z,100337.81
2023-02-23T20:01:16.872Z,100332.50
2023-02-23T20:03:45.840Z,100333.38
2023-02-23T20:06:14.147Z,100322.25
2023-02-23T20:08:46.093Z,100344.91
2023-02-23T20:11:12.898Z,100332.94
2023-02-23T20:13:40.150Z,100336.16
2023-02-23T20:16:09.519Z,100313.78
2023-02-23T20:18:38.540Z,100323.91
2023-02-23T20:21:23.316Z,100335.44
2023-02-23T20:23:50.844Z,100310.28
2023-02-23T20:26:31.108Z,100315.84
2023-02-23T20:28:58.749Z,100327.81
2023-02-23T20:31:30.759Z,100317.38
2023-02-23T20:34:01.162Z,100318.19
2023-02-23T20:36:28.051Z,100293.88
2023-02-23T20:38:54.808Z,100311.53
2023-02-23T20:41:22.639Z,100297.34
2023-02-23T20:43:51.548Z,100301.09
2023-02-23T20:46:19.818Z,100297.50
2023-02-23T20:48:49.118Z,100314.47
2023-02-23T20:51:18.023Z,100314.75
2023-02-23T20:53:47.086Z,100308.22
2023-02-23T20:56:16.835Z,100305.44
2023-02-23T20:58:44.045Z,100300.97
2023-02-23T21:01:15.863Z,100303.63
2023-02-23T21:03:42.811Z,100310.00
2023-02-23T21:06:09.922Z,100308.34
2023-02-23T21:08:39.925Z,100288.19
2023-02-23T21:11:07.771Z,100296.94
2023-02-23T21:13:35.506Z,100298.75
2023-02-23T21:16:03.269Z,100304.72
2023-02-23T21:18:31.125Z,100299.28
2023-02-23T21:21:09.979Z,100301.13
2023-02-23T21:23:38.902Z,100298.63
2023-02-23T21:26:16.144Z,100276.66
2023-02-23T21:28:44.834Z,100280.94
2023-02-23T21:31:13.607Z,100295.69
2023-02-23T21:33:42.448Z,100287.91
2023-02-23T21:36:10.811Z,100295.84
2023-02-23T21:38:39.298Z,100295.84
2023-02-23T21:41:06.580Z,100285.97
2023-02-23T21:43:37.940Z,100281.94
2023-02-23T21:46:16.262Z,100293.91
2023-02-23T21:48:43.693Z,100293.03
2023-02-23T21:51:13.380Z,100274.16
2023-02-23T21:53:41.227Z,100290.84
2023-02-23T21:56:15.722Z,100291.81
2023-02-23T21:58:48.450Z,100293.75
2023-02-23T22:01:28.027Z,100290.84
2023-02-23T22:03:55.284Z,100291.25
2023-02-23T22:06:25.366Z,100279.31
2023-02-23T22:08:53.054Z,100267.59
2023-02-23T22:11:24.835Z,100275.00
2023-02-23T22:13:54.670Z,100276.38
2023-02-23T22:16:21.851Z,100272.63
2023-02-23T22:18:48.677Z,100285.13
2023-02-23T22:21:15.643Z,100273.75
2023-02-23T22:23:50.213Z,100276.53
2023-02-23T22:26:17.888Z,100273.31
2023-02-23T22:28:45.010Z,100287.91
2023-02-23T22:31:13.996Z,100255.94
2023-02-23T22:33:43.787Z,100251.38
2023-02-23T22:36:14.801Z,100264.28
2023-02-23T22:38:42.936Z,100265.81
2023-02-23T22:41:10.587Z,100265.53
2023-02-23T22:43:38.283Z,100265.09
2023-02-23T22:46:06.445Z,100258.56
2023-02-23T22:48:33.798Z,100254.66
2023-02-23T22:51:01.234Z,100254.97
2023-02-23T22:53:28.592Z,100248.84
2023-02-23T22:55:56.373Z,100248.84
2023-02-23T22:58:24.506Z,100233.84
2023-02-23T23:01:04.695Z,100245.91
2023-02-23T23:03:45.985Z,100227.97
2023-02-23T23:06:22.381Z,100242.84
2023-02-23T23:08:51.888Z,100235.22
2023-02-23T23:11:22.095Z,100221.19
2023-02-23T23:13:51.959Z,100243.00
2023-02-23T23:16:31.214Z,100241.31
2023-02-23T23:19:12.159Z,100234.78
2023-02-23T23:21:41.024Z,100231.31
2023-02-23T23:24:09.319Z,100206.47
2023-02-23T23:26:40.805Z,100235.78
2023-02-23T23:29:11.347Z,100225.91
2023-02-23T23:31:40.493Z,100223.69
2023-02-23T23:34:10.613Z,100204.63
2023-02-23T23:36:42.880Z,100231.88
2023-02-23T23:39:16.325Z,100221.88
2023-02-23T23:41:48.072Z,100215.19
2023-02-23T23:44:20.833Z,100218.56
2023-02-23T23:46:50.839Z,100218.41
2023-02-23T23:49:21.544Z,100196.31
2023-02-23T23:51:51.662Z,100217.72
2023-02-23T23:54:32.529Z,100189.91
2023-02-23T23:57:03.810Z,100206.34
2023-02-23T23:59:31.858Z,100212.44
